Sophie Blue — CRXK3 — position and weather

sailwx.info

Track history (hours):
 
Tides and Currents Weather Stations Pressure Air Temp Water Temp Dewpoint Dewpoint Depression Visibility Wind Speed Wind Dir Waves Ship Positions

Sophie Blue

Last reported at 2015-Jul-06 06:19 UTC. Time now 2015-Jul-06 07:02 UTC.
Position N 43°33' E 007°01'.

; draft 2.7 m.

Type: Other ship. MMSI: 255901270.

Date/timePositionNaut miles runAvg speedWind from/ knotsBaromVisibWave heightAir tempDewpointWater temp
2015-Jul-06 06:19N 43°33' E 007°01'0 0.0
2015-Jul-05 18:10N 43°33' E 007°01'5 8.1
2015-Jul-05 17:33N 43°28' E 006°59'1212.5
2015-Jul-05 16:33N 43°17' E 006°51'12 5.0
2015-Jul-05 14:13N 43°10' E 006°38'0 0.0
2015-Jul-05 12:25N 43°10' E 006°38'0 0.0
2015-Jul-05 09:03N 43°10' E 006°38'3 6.8
2015-Jul-05 08:33N 43°12' E 006°42'6 2.4
2015-Jul-05 06:11N 43°17' E 006°38'0 0.0
2015-Jul-05 05:23N 43°17' E 006°38'0 0.0
2015-Jul-05 04:08N 43°17' E 006°38'0 0.0
2015-Jul-05 03:29N 43°17' E 006°38'0 0.0
2015-Jul-05 02:29N 43°17' E 006°38'0 0.0
2015-Jul-05 01:32N 43°17' E 006°38'0 0.0
2015-Jul-05 00:23N 43°17' E 006°38'0 0.0
2015-Jul-04 23:32N 43°17' E 006°38'0 0.1
2015-Jul-04 21:11N 43°16' E 006°37'0 0.4
2015-Jul-04 20:30N 43°16' E 006°37'4 3.8
2015-Jul-04 19:33N 43°14' E 006°41'0 0.3
2015-Jul-04 18:27N 43°14' E 006°40'0 0.0
2015-Jul-04 17:33N 43°14' E 006°40'0 0.0
2015-Jul-04 16:33N 43°14' E 006°40'0 0.0
2015-Jul-04 15:33N 43°14' E 006°40'0 0.0
2015-Jul-04 14:33N 43°13' E 006°40'0 0.0
2015-Jul-04 13:33N 43°13' E 006°40'4 3.5
2015-Jul-04 12:33N 43°16' E 006°38'0 0.2
2015-Jul-04 11:31N 43°16' E 006°38'0 0.0
2015-Jul-04 10:22N 43°16' E 006°38'0 0.0
2015-Jul-04 09:31N 43°16' E 006°38'0 0.0
2015-Jul-04 08:33N 43°16' E 006°38'0 0.0
2015-Jul-04 07:30N 43°16' E 006°38'0 0.0
2015-Jul-04 06:33N 43°16' E 006°38'0 0.0
2015-Jul-04 05:33N 43°16' E 006°38'0 0.0
2015-Jul-04 04:13N 43°16' E 006°38'0 0.0
2015-Jul-04 03:26N 43°16' E 006°38'0 0.0
2015-Jul-04 02:28N 43°16' E 006°38'0 0.0
2015-Jul-04 01:32N 43°16' E 006°38'0 0.0
2015-Jul-04 00:25N 43°16' E 006°38'0 0.0
2015-Jul-03 23:30N 43°16' E 006°38'0 0.0
2015-Jul-03 22:33N 43°16' E 006°38'0 0.0
2015-Jul-03 21:30N 43°16' E 006°38'0 0.0
2015-Jul-03 20:33N 43°16' E 006°38'0 0.0
2015-Jul-03 19:33N 43°16' E 006°38'0 0.2
2015-Jul-03 18:33N 43°16' E 006°37'3 3.3
2015-Jul-03 17:34N 43°14' E 006°40'0 0.0
2015-Jul-03 16:33N 43°14' E 006°40'0 0.0
2015-Jul-03 15:33N 43°14' E 006°40'0 0.0
2015-Jul-03 14:33N 43°14' E 006°40'10 9.6
2015-Jul-03 13:33N 43°20' E 006°51'1211.7
2015-Jul-03 12:34N 43°28' E 007°03'1211.7
2015-Jul-03 11:33N 43°36' E 007°14'6 6.3
2015-Jul-03 10:33N 43°42' E 007°17'0 0.0
2015-Jul-03 09:21N 43°42' E 007°17'0 0.0
2015-Jul-03 08:33N 43°42' E 007°17'0 0.0
2015-Jul-01 13:32N 43°42' E 007°17'1 0.9
2015-Jul-01 12:34N 43°41' E 007°18'9 9.3
2015-Jul-01 11:33N 43°32' E 007°13'1211.7
2015-Jul-01 10:33N 43°26' E 006°59'1111.3
2015-Jul-01 09:33N 43°20' E 006°46'7 0.4
2015-Jun-30 16:17N 43°16' E 006°38'0 0.0
2015-Jun-29 16:32N 43°16' E 006°38'2 0.3
2015-Jun-29 11:04N 43°16' E 006°40'1 2.2
2015-Jun-29 10:32N 43°16' E 006°38'0 0.0
2015-Jun-29 08:26N 43°16' E 006°38'3 0.2
2015-Jun-28 15:14N 43°14' E 006°40'0 0.0
2015-Jun-28 14:33N 43°14' E 006°40'4 1.3
2015-Jun-28 11:33N 43°17' E 006°42'3 0.8
2015-Jun-28 08:25N 43°16' E 006°38'0 0.0
2015-Jun-28 06:13N 43°16' E 006°38'0 0.0
2015-Jun-27 23:07N 43°16' E 006°38'0 0.0
2015-Jun-27 21:25N 43°16' E 006°38'0 0.0
2015-Jun-27 20:31N 43°16' E 006°38'0 0.0
2015-Jun-27 19:25N 43°16' E 006°38'0 0.0
2015-Jun-27 18:34N 43°16' E 006°38'6 5.1
2015-Jun-27 17:28N 43°11' E 006°41'3 0.5
2015-Jun-27 12:33N 43°10' E 006°38'7 6.8
2015-Jun-27 11:32N 43°17' E 006°39'1 0.1
2015-Jun-26 22:30N 43°16' E 006°38'0 0.0
2015-Jun-26 21:27N 43°16' E 006°38'0 0.0
2015-Jun-26 19:09N 43°16' E 006°38'0 0.0
2015-Jun-26 17:27N 43°16' E 006°38'  
Track history (hours):
 
Tides and Currents Weather Stations Pressure Air Temp Water Temp Dewpoint Dewpoint Depression Visibility Wind Speed Wind Dir Waves Ship Positions

Sophie Blue

Last reported at 2015-Jul-06 06:19 UTC. Time now 2015-Jul-06 07:02 UTC.
Position N 43°33' E 007°01'.

; draft 2.7 m.

Type: Other ship. MMSI: 255901270.

Date/timePositionNaut miles runAvg speedWind from/ knotsBaromVisibWave heightAir tempDewpointWater temp
2015-Jul-06 06:19N 43°33' E 007°01'0 0.0
2015-Jul-05 18:10N 43°33' E 007°01'5 8.1
2015-Jul-05 17:33N 43°28' E 006°59'1212.5
2015-Jul-05 16:33N 43°17' E 006°51'12 5.0
2015-Jul-05 14:13N 43°10' E 006°38'0 0.0
2015-Jul-05 12:25N 43°10' E 006°38'0 0.0
2015-Jul-05 09:03N 43°10' E 006°38'3 6.8
2015-Jul-05 08:33N 43°12' E 006°42'6 2.4
2015-Jul-05 06:11N 43°17' E 006°38'0 0.0
2015-Jul-05 05:23N 43°17' E 006°38'0 0.0
2015-Jul-05 04:08N 43°17' E 006°38'0 0.0
2015-Jul-05 03:29N 43°17' E 006°38'0 0.0
2015-Jul-05 02:29N 43°17' E 006°38'0 0.0
2015-Jul-05 01:32N 43°17' E 006°38'0 0.0
2015-Jul-05 00:23N 43°17' E 006°38'0 0.0
2015-Jul-04 23:32N 43°17' E 006°38'0 0.1
2015-Jul-04 21:11N 43°16' E 006°37'0 0.4
2015-Jul-04 20:30N 43°16' E 006°37'4 3.8
2015-Jul-04 19:33N 43°14' E 006°41'0 0.3
2015-Jul-04 18:27N 43°14' E 006°40'0 0.0
2015-Jul-04 17:33N 43°14' E 006°40'0 0.0
2015-Jul-04 16:33N 43°14' E 006°40'0 0.0
2015-Jul-04 15:33N 43°14' E 006°40'0 0.0
2015-Jul-04 14:33N 43°13' E 006°40'0 0.0
2015-Jul-04 13:33N 43°13' E 006°40'4 3.5
2015-Jul-04 12:33N 43°16' E 006°38'0 0.2
2015-Jul-04 11:31N 43°16' E 006°38'0 0.0
2015-Jul-04 10:22N 43°16' E 006°38'0 0.0
2015-Jul-04 09:31N 43°16' E 006°38'0 0.0
2015-Jul-04 08:33N 43°16' E 006°38'0 0.0
2015-Jul-04 07:30N 43°16' E 006°38'0 0.0
2015-Jul-04 06:33N 43°16' E 006°38'0 0.0
2015-Jul-04 05:33N 43°16' E 006°38'0 0.0
2015-Jul-04 04:13N 43°16' E 006°38'0 0.0
2015-Jul-04 03:26N 43°16' E 006°38'0 0.0
2015-Jul-04 02:28N 43°16' E 006°38'0 0.0
2015-Jul-04 01:32N 43°16' E 006°38'0 0.0
2015-Jul-04 00:25N 43°16' E 006°38'0 0.0
2015-Jul-03 23:30N 43°16' E 006°38'0 0.0
2015-Jul-03 22:33N 43°16' E 006°38'0 0.0
2015-Jul-03 21:30N 43°16' E 006°38'0 0.0
2015-Jul-03 20:33N 43°16' E 006°38'0 0.0
2015-Jul-03 19:33N 43°16' E 006°38'0 0.2
2015-Jul-03 18:33N 43°16' E 006°37'3 3.3
2015-Jul-03 17:34N 43°14' E 006°40'0 0.0
2015-Jul-03 16:33N 43°14' E 006°40'0 0.0
2015-Jul-03 15:33N 43°14' E 006°40'0 0.0
2015-Jul-03 14:33N 43°14' E 006°40'10 9.6
2015-Jul-03 13:33N 43°20' E 006°51'1211.7
2015-Jul-03 12:34N 43°28' E 007°03'1211.7
2015-Jul-03 11:33N 43°36' E 007°14'6 6.3
2015-Jul-03 10:33N 43°42' E 007°17'0 0.0
2015-Jul-03 09:21N 43°42' E 007°17'0 0.0
2015-Jul-03 08:33N 43°42' E 007°17'0 0.0
2015-Jul-01 13:32N 43°42' E 007°17'1 0.9
2015-Jul-01 12:34N 43°41' E 007°18'9 9.3
2015-Jul-01 11:33N 43°32' E 007°13'1211.7
2015-Jul-01 10:33N 43°26' E 006°59'1111.3
2015-Jul-01 09:33N 43°20' E 006°46'7 0.4
2015-Jun-30 16:17N 43°16' E 006°38'0 0.0
2015-Jun-29 16:32N 43°16' E 006°38'2 0.3
2015-Jun-29 11:04N 43°16' E 006°40'1 2.2
2015-Jun-29 10:32N 43°16' E 006°38'0 0.0
2015-Jun-29 08:26N 43°16' E 006°38'3 0.2
2015-Jun-28 15:14N 43°14' E 006°40'0 0.0
2015-Jun-28 14:33N 43°14' E 006°40'4 1.3
2015-Jun-28 11:33N 43°17' E 006°42'3 0.8
2015-Jun-28 08:25N 43°16' E 006°38'0 0.0
2015-Jun-28 06:13N 43°16' E 006°38'0 0.0
2015-Jun-27 23:07N 43°16' E 006°38'0 0.0
2015-Jun-27 21:25N 43°16' E 006°38'0 0.0
2015-Jun-27 20:31N 43°16' E 006°38'0 0.0
2015-Jun-27 19:25N 43°16' E 006°38'0 0.0
2015-Jun-27 18:34N 43°16' E 006°38'6 5.1
2015-Jun-27 17:28N 43°11' E 006°41'3 0.5
2015-Jun-27 12:33N 43°10' E 006°38'7 6.8
2015-Jun-27 11:32N 43°17' E 006°39'1 0.1
2015-Jun-26 22:30N 43°16' E 006°38'0 0.0
2015-Jun-26 21:27N 43°16' E 006°38'0 0.0
2015-Jun-26 19:09N 43°16' E 006°38'0 0.0
2015-Jun-26 17:27N 43°16' E 006°38'  

Dump ship's entire track history